Time;durP1;ratioP1;P1;durP2;ratioP2;P2;SDS_P1;SDS_P2;PMS_P1;PMS_P2;Temp;Humidity;BMP_temperature;BMP_pressure;BME280_temperature;BME280_humidity;BME280_pressure;Samples;Min_cycle;Max_cycle;Signal;HPM_P1;HPM_P2
2022/03/06 00:00:44;;;;;;;7.72;3.38;;;2.50;99.90;;;;;;5005669;28;20037;-74
2022/03/06 00:03:11;;;;;;;5.90;2.88;;;2.40;99.90;;;;;;4987935;28;20041;-72
2022/03/06 00:05:37;;;;;;;12.95;3.70;;;2.40;99.90;;;;;;5005616;28;20058;-71
2022/03/06 00:08:03;;;;;;;6.32;2.80;;;2.40;99.90;;;;;;5005241;28;20092;-71
2022/03/06 00:10:30;;;;;;;11.10;3.90;;;2.40;99.90;;;;;;4987516;28;20058;-71
2022/03/06 00:12:56;;;;;;;8.32;3.25;;;2.40;99.90;;;;;;5005336;28;20464;-72
2022/03/06 00:15:23;;;;;;;9.05;3.78;;;2.40;99.90;;;;;;4990562;28;20098;-72
2022/03/06 00:17:49;;;;;;;8.52;3.13;;;2.50;99.90;;;;;;4985739;28;20027;-71
2022/03/06 00:20:16;;;;;;;7.30;2.90;;;2.50;99.90;;;;;;4984480;28;20031;-72
2022/03/06 00:22:41;;;;;;;9.68;3.70;;;2.60;99.90;;;;;;4985780;28;20502;-73
2022/03/06 00:25:08;;;;;;;8.35;3.45;;;2.60;99.90;;;;;;4985579;28;20035;-72
2022/03/06 00:27:34;;;;;;;6.93;3.17;;;2.60;99.90;;;;;;4985807;28;20038;-72
2022/03/06 00:29:59;;;;;;;6.43;3.45;;;2.60;99.90;;;;;;4985780;28;20035;-70
2022/03/06 00:32:25;;;;;;;15.23;3.28;;;2.50;99.90;;;;;;4985324;28;20035;-73
2022/03/06 00:34:51;;;;;;;8.43;3.70;;;2.60;99.90;;;;;;4981388;28;20050;-71
2022/03/06 00:37:17;;;;;;;7.72;3.35;;;2.60;99.90;;;;;;4987756;28;20492;-72
2022/03/06 00:39:43;;;;;;;7.07;3.08;;;2.60;99.90;;;;;;4987116;28;20026;-70
2022/03/06 00:42:10;;;;;;;7.28;3.42;;;2.60;99.90;;;;;;5000511;28;20046;-73
2022/03/06 00:44:36;;;;;;;6.72;3.30;;;2.50;99.90;;;;;;5000049;28;20037;-73
2022/03/06 00:47:03;;;;;;;6.50;3.42;;;2.50;99.90;;;;;;5003775;28;20026;-72
2022/03/06 00:49:29;;;;;;;6.32;3.05;;;2.50;99.90;;;;;;5003379;28;20394;-73
2022/03/06 00:51:55;;;;;;;3.88;2.53;;;2.50;99.90;;;;;;5000621;28;20026;-70
2022/03/06 00:54:20;;;;;;;9.70;3.55;;;2.40;99.90;;;;;;4994005;28;20030;-73
2022/03/06 00:56:47;;;;;;;8.18;3.45;;;2.40;99.90;;;;;;4968542;28;20034;-71
2022/03/06 00:59:13;;;;;;;5.43;2.60;;;2.40;99.90;;;;;;4994325;28;20042;-73
2022/03/06 01:01:43;;;;;;;5.07;2.55;;;2.40;99.90;;;;;;4996602;28;20038;-73
2022/03/06 01:04:09;;;;;;;6.40;3.38;;;2.40;99.90;;;;;;4972045;28;20050;-71
2022/03/06 01:06:38;;;;;;;6.70;3.25;;;2.40;99.90;;;;;;4988737;28;20026;-72
2022/03/06 09:46:27;;;;;;;6.13;2.25;;;8.00;99.90;;;;;;3892567;23;23354;-73
2022/03/06 09:52:35;;;;;;;3.78;2.00;;;8.30;99.90;;;;;;5059312;23;20077;-73
2022/03/06 09:55:20;;;;;;;4.75;2.28;;;8.30;99.90;;;;;;5050873;28;20025;-72
2022/03/06 09:57:47;;;;;;;6.80;2.15;;;8.40;99.90;;;;;;5053575;28;20040;-72
2022/03/06 10:00:13;;;;;;;7.30;2.08;;;8.40;99.90;;;;;;5064711;28;20028;-71
2022/03/06 10:02:59;;;;;;;4.50;1.83;;;8.60;99.90;;;;;;5055111;28;20050;-72
2022/03/06 10:05:26;;;;;;;2.38;1.50;;;8.80;99.90;;;;;;5053015;28;20025;-71
2022/03/06 10:08:16;;;;;;;3.58;1.90;;;9.00;99.90;;;;;;5063100;28;20472;-74
2022/03/06 10:10:43;;;;;;;7.10;2.33;;;9.20;99.90;;;;;;5039256;28;20429;-71
2022/03/06 10:13:30;;;;;;;4.45;1.92;;;9.20;99.90;;;;;;5058753;28;20032;-72
2022/03/06 10:16:19;;;;;;;3.80;2.13;;;9.10;99.90;;;;;;5055238;28;20040;-72
2022/03/06 10:18:53;;;;;;;6.00;1.85;;;9.20;99.90;;;;;;5053722;28;20047;-70
2022/03/06 10:21:23;;;;;;;;;;;9.30;99.90;;;;;;5054326;28;20032;-71
2022/03/06 10:24:01;;;;;;;5.35;2.75;;;9.30;99.90;;;;;;5048060;28;20031;-73
2022/03/06 10:26:29;;;;;;;4.18;2.00;;;9.40;99.90;;;;;;5038421;28;20033;-71
2022/03/06 10:29:05;;;;;;;4.05;1.73;;;9.30;99.90;;;;;;5059316;28;20044;-72
2022/03/06 10:31:33;;;;;;;4.18;2.10;;;9.30;99.90;;;;;;5057590;28;20044;-72
2022/03/06 10:34:01;;;;;;;5.22;2.67;;;9.20;99.90;;;;;;5047285;28;20025;-71
2022/03/06 10:36:41;;;;;;;6.22;2.42;;;9.20;99.90;;;;;;5059022;28;20112;-70
2022/03/06 10:39:17;;;;;;;3.17;2.10;;;9.30;99.90;;;;;;5042291;28;20037;-72
2022/03/06 10:41:49;;;;;;;5.35;2.53;;;9.40;99.90;;;;;;5064156;28;20044;-71
2022/03/06 10:44:17;;;;;;;3.40;2.00;;;9.70;99.90;;;;;;5061419;28;20040;-73
2022/03/06 10:46:59;;;;;;;10.63;2.50;;;10.00;99.90;;;;;;5054170;28;20032;-71
2022/03/06 10:49:26;;;;;;;3.15;1.92;;;10.10;99.90;;;;;;5047252;28;20029;-71
2022/03/06 10:51:52;;;;;;;4.82;2.38;;;10.00;99.90;;;;;;5046076;28;20049;-72
2022/03/06 10:54:18;;;;;;;6.93;2.03;;;10.10;99.90;;;;;;5002089;28;20054;-72
2022/03/06 10:56:50;;;;;;;6.25;2.10;;;10.20;99.90;;;;;;4997967;28;20051;-72
2022/03/06 10:59:24;;;;;;;4.60;2.10;;;10.30;99.90;;;;;;4997120;28;20042;-73
2022/03/06 11:01:52;;;;;;;5.00;1.83;;;10.40;99.90;;;;;;4999249;28;20113;-72
2022/03/06 11:04:21;;;;;;;4.18;1.95;;;10.50;99.90;;;;;;5002416;28;20042;-72
2022/03/06 11:06:51;;;;;;;6.47;1.80;;;10.70;99.90;;;;;;5004571;28;20050;-71
2022/03/06 11:09:20;;;;;;;2.58;1.58;;;10.80;99.90;;;;;;5004090;28;20496;-71
2022/03/06 11:11:52;;;;;;;3.55;2.10;;;11.00;99.90;;;;;;5005975;28;20030;-71
2022/03/06 11:14:20;;;;;;;3.58;1.98;;;11.40;99.90;;;;;;5005821;28;20045;-71
2022/03/06 11:16:45;;;;;;;4.07;1.92;;;11.40;99.90;;;;;;5003691;28;20030;-73
2022/03/06 11:19:11;;;;;;;4.82;1.90;;;11.60;99.90;;;;;;5000872;28;20042;-71
2022/03/06 11:21:45;;;;;;;4.63;2.22;;;11.80;99.90;;;;;;5000403;28;20034;-73
2022/03/06 11:24:21;;;;;;;2.38;1.70;;;12.10;99.90;;;;;;4998406;28;20030;-72
2022/03/06 11:27:21;;;;;;;3.95;2.05;;;12.30;99.90;;;;;;5005411;28;20044;-71
2022/03/06 11:29:57;;;;;;;3.63;1.67;;;12.30;99.90;;;;;;5000901;28;20049;-70
2022/03/06 11:32:26;;;;;;;4.72;1.77;;;12.10;99.90;;;;;;5005640;28;20027;-73
2022/03/06 11:34:54;;;;;;;4.43;1.90;;;12.10;99.90;;;;;;5004871;28;20034;-72
2022/03/06 11:37:20;;;;;;;2.25;1.33;;;12.20;99.90;;;;;;5005501;28;20049;-71
2022/03/06 11:39:48;;;;;;;2.92;1.75;;;12.40;99.90;;;;;;5005633;28;20053;-71
2022/03/06 11:42:53;;;;;;;4.55;1.88;;;12.60;99.90;;;;;;5001835;28;20041;-74
2022/03/06 11:45:52;;;;;;;3.10;1.65;;;12.50;99.50;;;;;;4988008;28;20038;-74
2022/03/06 11:48:47;;;;;;;5.18;1.40;;;12.70;99.90;;;;;;5004773;28;20034;-71
2022/03/06 11:51:17;;;;;;;2.63;1.48;;;13.00;98.00;;;;;;5002018;28;20038;-72
2022/03/06 11:53:52;;;;;;;6.03;1.73;;;13.10;99.20;;;;;;5032388;28;20053;-72
2022/03/06 11:56:33;;;;;;;1.80;1.02;;;13.40;99.30;;;;;;5043963;28;20059;-73
2022/03/06 11:59:09;;;;;;;2.88;1.33;;;13.30;99.10;;;;;;5043872;28;20082;-72
2022/03/06 12:01:42;;;;;;;3.30;1.67;;;13.10;98.80;;;;;;5043418;28;20037;-72
2022/03/06 12:04:11;;;;;;;2.28;1.60;;;12.90;97.30;;;;;;5026058;28;20036;-71
2022/03/06 12:06:47;;;;;;;3.35;1.80;;;12.70;99.90;;;;;;5044722;28;20032;-71
2022/03/06 12:09:15;;;;;;;5.18;1.77;;;13.10;99.90;;;;;;5044222;28;20052;-72
2022/03/06 12:11:43;;;;;;;2.13;1.20;;;13.60;99.90;;;;;;5024556;28;20044;-72
2022/03/06 12:14:16;;;;;;;2.03;1.30;;;14.00;97.90;;;;;;5043948;28;20017;-72
2022/03/06 12:17:00;;;;;;;5.60;1.97;;;13.90;97.30;;;;;;5044319;28;20021;-71
2022/03/06 12:19:31;;;;;;;2.88;1.48;;;13.90;96.50;;;;;;5041048;28;20083;-74
2022/03/06 12:22:29;;;;;;;2.28;1.48;;;13.90;99.10;;;;;;5038096;28;20037;-73
2022/03/06 12:25:04;;;;;;;2.13;1.35;;;13.40;96.50;;;;;;5009675;28;20042;-74
2022/03/06 12:27:30;;;;;;;1.73;1.45;;;12.80;95.70;;;;;;5040027;28;20034;-73
2022/03/06 12:29:57;;;;;;;2.95;1.20;;;12.30;98.80;;;;;;5026411;28;20029;-74
2022/03/06 12:32:28;;;;;;;2.55;1.58;;;12.60;97.90;;;;;;5043866;28;20022;-73
2022/03/06 12:35:00;;;;;;;2.00;1.40;;;12.50;97.00;;;;;;5044221;28;20038;-73
2022/03/06 12:37:33;;;;;;;0.88;0.85;;;12.20;98.40;;;;;;5044077;28;20025;-73
2022/03/06 12:40:01;;;;;;;3.95;1.50;;;12.60;99.60;;;;;;5043937;28;20040;-72
2022/03/06 12:42:29;;;;;;;1.85;1.13;;;12.90;97.00;;;;;;5044027;28;20049;-72
2022/03/06 12:45:03;;;;;;;1.70;1.17;;;12.80;98.20;;;;;;5030822;28;20041;-72
2022/03/06 12:47:29;;;;;;;5.03;1.85;;;12.70;98.90;;;;;;5036396;28;20033;-73
2022/03/06 12:49:56;;;;;;;3.08;1.60;;;12.70;97.50;;;;;;5031316;28;20018;-73
2022/03/06 12:52:28;;;;;;;2.30;1.27;;;12.60;98.00;;;;;;5025394;28;20042;-72
2022/03/06 12:54:55;;;;;;;5.75;1.58;;;12.50;98.00;;;;;;5010042;28;20461;-71
2022/03/06 12:57:30;;;;;;;3.28;1.70;;;12.30;97.40;;;;;;5028218;28;20033;-73
2022/03/06 12:59:56;;;;;;;2.88;1.52;;;11.90;98.30;;;;;;5028122;28;20034;-73
2022/03/06 13:02:23;;;;;;;2.33;1.30;;;11.80;98.20;;;;;;5028100;28;20064;-73
2022/03/06 13:04:53;;;;;;;5.03;1.35;;;11.80;98.80;;;;;;5028467;28;20061;-72
2022/03/06 13:07:31;;;;;;;2.80;1.63;;;11.90;99.40;;;;;;5027887;28;20030;-73
2022/03/06 13:09:58;;;;;;;5.07;1.40;;;11.90;98.10;;;;;;5027842;28;20085;-72
2022/03/06 13:12:28;;;;;;;2.97;1.50;;;12.50;99.10;;;;;;5011767;28;20097;-73
2022/03/06 13:14:54;;;;;;;1.83;1.08;;;13.40;97.50;;;;;;5047579;28;20030;-74
2022/03/06 13:17:21;;;;;;;2.03;1.30;;;13.70;97.30;;;;;;5047454;28;20036;-71
2022/03/06 13:19:48;;;;;;;3.72;1.40;;;13.60;97.40;;;;;;5044101;28;20030;-71
2022/03/06 13:22:19;;;;;;;2.28;1.27;;;13.10;97.20;;;;;;5044966;28;20038;-73
2022/03/06 13:24:47;;;;;;;2.70;1.30;;;12.60;97.10;;;;;;5047136;28;20034;-72
2022/03/06 13:27:25;;;;;;;3.63;1.25;;;12.10;97.90;;;;;;5047422;28;20411;-71
2022/03/06 13:30:19;;;;;;;2.55;1.60;;;11.60;98.30;;;;;;5047015;28;20474;-73
2022/03/06 13:32:56;;;;;;;8.85;1.52;;;11.30;98.80;;;;;;5033638;28;20038;-71
2022/03/06 13:35:32;;;;;;;2.20;1.33;;;11.50;98.30;;;;;;5036160;28;20379;-74
2022/03/06 13:38:01;;;;;;;4.78;2.03;;;12.10;98.10;;;;;;5046654;28;20104;-73
2022/03/06 13:40:32;;;;;;;5.28;1.40;;;12.10;98.80;;;;;;5046232;28;20033;-73
2022/03/06 13:43:00;;;;;;;3.20;1.50;;;11.90;99.00;;;;;;5027896;28;20428;-71
2022/03/06 13:45:30;;;;;;;4.10;1.77;;;12.30;98.30;;;;;;5045622;28;20033;-73
2022/03/06 13:48:03;;;;;;;3.35;1.25;;;12.50;98.20;;;;;;5037194;28;20252;-74
2022/03/06 13:50:37;;;;;;;3.22;1.52;;;13.20;98.20;;;;;;5027550;28;20030;-74
2022/03/06 13:53:09;;;;;;;2.55;1.40;;;13.80;97.80;;;;;;5046833;28;20046;-73
2022/03/06 13:55:37;;;;;;;3.90;1.48;;;13.90;96.90;;;;;;5030747;28;20025;-74
2022/03/06 13:58:09;;;;;;;2.05;1.35;;;13.90;97.50;;;;;;5026280;28;20026;-74
2022/03/06 14:00:40;;;;;;;4.90;1.65;;;13.50;97.60;;;;;;5008308;28;20022;-73
2022/03/06 14:03:17;;;;;;;5.15;1.58;;;13.10;97.00;;;;;;5026820;28;20034;-74
2022/03/06 14:05:51;;;;;;;2.08;1.17;;;12.80;97.10;;;;;;5026349;28;20034;-74
2022/03/06 14:08:29;;;;;;;3.70;1.50;;;13.40;98.60;;;;;;5027183;28;20036;-73
2022/03/06 14:10:57;;;;;;;4.45;1.10;;;13.60;96.10;;;;;;5026534;28;20034;-72
2022/03/06 14:13:31;;;;;;;6.13;1.30;;;13.50;97.60;;;;;;5034372;28;20038;-72
2022/03/06 14:16:18;;;;;;;2.47;1.13;;;13.90;96.00;;;;;;5034674;28;20045;-72
2022/03/06 14:18:51;;;;;;;1.80;1.40;;;13.30;95.90;;;;;;5027291;28;20480;-72
2022/03/06 14:21:26;;;;;;;3.08;1.45;;;12.60;97.40;;;;;;5029254;28;20037;-74
2022/03/06 14:24:05;;;;;;;3.33;1.35;;;12.10;97.70;;;;;;5034640;28;20037;-74
2022/03/06 14:26:34;;;;;;;3.13;1.35;;;11.50;98.40;;;;;;5014105;28;21014;-74
2022/03/06 14:29:01;;;;;;;5.82;2.17;;;11.20;98.70;;;;;;5038260;28;20056;-72
2022/03/06 14:31:28;;;;;;;4.88;1.75;;;11.00;99.40;;;;;;5026081;28;20076;-72
2022/03/06 14:34:00;;;;;;;2.67;1.20;;;11.40;99.90;;;;;;5045775;28;20048;-72
2022/03/06 14:36:27;;;;;;;2.83;1.70;;;12.60;99.90;;;;;;5045703;28;20039;-71
2022/03/06 14:39:00;;;;;;;2.33;1.70;;;13.70;98.80;;;;;;5045893;28;20065;-71
2022/03/06 14:41:25;;;;;;;3.10;1.30;;;13.70;98.40;;;;;;5027584;28;20040;-74
2022/03/06 14:43:55;;;;;;;3.00;1.67;;;13.20;97.50;;;;;;5046242;28;20096;-73
2022/03/06 14:46:22;;;;;;;2.58;1.70;;;12.80;97.70;;;;;;5045762;28;20068;-73
2022/03/06 14:48:51;;;;;;;10.05;2.20;;;12.20;98.30;;;;;;5045189;28;20036;-72
2022/03/06 14:51:19;;;;;;;8.00;1.98;;;11.80;98.20;;;;;;5033338;28;20029;-72
2022/03/06 14:53:45;;;;;;;8.57;2.20;;;11.30;99.20;;;;;;5026767;28;20057;-71
2022/03/06 14:56:12;;;;;;;3.63;1.75;;;10.90;99.50;;;;;;5045082;28;20774;-71
2022/03/06 14:58:39;;;;;;;3.75;1.77;;;10.80;99.90;;;;;;5045703;28;20026;-71
2022/03/06 15:01:06;;;;;;;2.30;1.65;;;10.50;99.90;;;;;;5045272;28;20033;-72
2022/03/06 15:03:32;;;;;;;4.10;1.95;;;10.30;99.90;;;;;;5044706;28;20041;-71
2022/03/06 15:05:59;;;;;;;5.30;2.40;;;10.00;99.90;;;;;;5037650;28;20033;-73
2022/03/06 15:08:24;;;;;;;2.85;1.70;;;9.80;99.90;;;;;;5039052;28;20018;-73
2022/03/06 15:10:51;;;;;;;6.32;2.50;;;10.00;99.90;;;;;;5025772;28;20033;-74
2022/03/06 15:13:17;;;;;;;4.82;2.33;;;10.60;99.90;;;;;;5049991;28;20025;-72
2022/03/06 15:15:42;;;;;;;4.40;1.60;;;10.80;99.90;;;;;;5037534;28;20571;-74
2022/03/06 15:18:08;;;;;;;2.35;1.60;;;10.80;99.90;;;;;;5037169;28;20029;-72
2022/03/06 15:20:34;;;;;;;5.22;1.77;;;10.60;99.90;;;;;;5044277;28;20048;-74
2022/03/06 15:23:00;;;;;;;2.95;1.95;;;10.70;99.90;;;;;;5043982;28;20049;-73
2022/03/06 15:25:27;;;;;;;2.97;1.63;;;10.90;99.90;;;;;;5045241;28;20029;-73
2022/03/06 15:27:55;;;;;;;3.70;1.98;;;10.70;99.90;;;;;;5045204;28;20384;-74
2022/03/06 15:30:20;;;;;;;3.33;1.63;;;10.40;99.90;;;;;;5045119;28;20026;-74
2022/03/06 15:32:46;;;;;;;11.00;1.73;;;10.10;99.90;;;;;;5045363;28;20417;-73
2022/03/06 15:35:12;;;;;;;3.40;2.10;;;9.90;99.90;;;;;;5044894;28;20018;-73
2022/03/06 15:37:38;;;;;;;1.95;1.10;;;9.80;99.90;;;;;;5043706;28;20067;-73
2022/03/06 15:40:09;;;;;;;5.35;1.63;;;10.20;99.90;;;;;;5043921;28;20026;-72
2022/03/06 15:42:37;;;;;;;3.38;1.80;;;10.70;99.90;;;;;;5020811;28;20073;-74
2022/03/06 15:45:05;;;;;;;3.45;1.75;;;10.70;99.90;;;;;;5039079;28;20033;-72
2022/03/06 15:47:30;;;;;;;6.00;2.00;;;10.30;99.90;;;;;;5023644;28;20473;-72
2022/03/06 15:49:56;;;;;;;4.03;1.90;;;9.90;99.90;;;;;;5024673;28;20035;-74
2022/03/06 15:52:24;;;;;;;2.65;1.52;;;9.60;99.90;;;;;;5038338;28;20127;-73
2022/03/06 15:54:50;;;;;;;3.60;1.75;;;9.70;99.90;;;;;;5026892;28;20033;-74
2022/03/06 15:57:19;;;;;;;4.40;2.13;;;10.40;99.90;;;;;;5041953;28;20064;-73
2022/03/06 15:59:49;;;;;;;5.78;2.03;;;11.10;99.90;;;;;;5026369;28;20037;-72
2022/03/06 16:02:23;;;;;;;6.20;1.88;;;12.00;99.90;;;;;;5024178;28;20563;-72
2022/03/06 16:04:50;;;;;;;4.17;2.00;;;12.70;99.90;;;;;;5044051;28;20047;-72
2022/03/06 16:07:16;;;;;;;2.63;1.60;;;13.20;99.50;;;;;;5042908;28;20276;-72
2022/03/06 16:09:43;;;;;;;6.72;2.22;;;12.80;99.90;;;;;;5043874;28;20116;-73
2022/03/06 16:12:09;;;;;;;3.80;1.77;;;12.00;99.90;;;;;;5044118;28;20033;-72
2022/03/06 16:14:34;;;;;;;3.20;1.70;;;11.40;99.90;;;;;;5044398;28;20033;-73
2022/03/06 16:17:00;;;;;;;3.75;1.70;;;10.80;99.90;;;;;;5043051;28;20029;-71
2022/03/06 16:19:26;;;;;;;3.05;1.60;;;10.20;99.90;;;;;;5042952;28;20391;-74
2022/03/06 16:21:52;;;;;;;2.50;1.65;;;9.80;99.90;;;;;;5026341;28;20466;-73
2022/03/06 16:24:18;;;;;;;9.98;3.20;;;9.40;99.90;;;;;;5044033;28;20044;-73
2022/03/06 16:26:44;;;;;;;2.33;1.50;;;9.10;99.90;;;;;;5043886;28;20092;-71
2022/03/06 16:29:10;;;;;;;3.20;1.70;;;8.80;99.90;;;;;;5024042;28;20040;-71
2022/03/06 16:31:36;;;;;;;2.47;1.73;;;8.50;99.90;;;;;;5043369;28;20026;-73
2022/03/06 16:34:03;;;;;;;2.67;1.35;;;8.20;99.90;;;;;;5043546;28;20040;-71
2022/03/06 16:36:31;;;;;;;5.97;2.55;;;8.10;99.90;;;;;;5043148;28;20026;-72
2022/03/06 16:38:57;;;;;;;4.60;2.15;;;8.00;99.90;;;;;;5025735;28;20022;-74
2022/03/06 16:41:23;;;;;;;3.20;1.73;;;7.90;99.90;;;;;;5044255;28;20029;-73
2022/03/06 16:43:51;;;;;;;3.00;1.98;;;7.90;99.90;;;;;;5043231;28;20120;-72
2022/03/06 16:46:21;;;;;;;3.75;2.05;;;7.80;99.90;;;;;;5021630;28;20026;-72
2022/03/06 16:48:47;;;;;;;2.22;1.48;;;7.70;99.90;;;;;;5034139;28;20124;-72
2022/03/06 16:51:15;;;;;;;5.43;2.95;;;7.60;99.90;;;;;;5022371;28;20026;-72
2022/03/06 16:53:41;;;;;;;2.83;2.08;;;7.40;99.90;;;;;;5023491;28;20054;-73
2022/03/06 16:56:07;;;;;;;5.18;2.30;;;7.30;99.90;;;;;;5023958;28;20022;-73
2022/03/06 16:58:32;;;;;;;2.17;1.92;;;7.30;99.90;;;;;;5029044;28;20067;-71
2022/03/06 17:00:58;;;;;;;5.95;2.50;;;7.20;99.90;;;;;;5029099;28;20394;-72
2022/03/06 17:03:24;;;;;;;9.77;4.30;;;7.20;99.90;;;;;;5023795;28;20097;-73
2022/03/06 17:05:50;;;;;;;14.15;5.20;;;7.10;99.90;;;;;;5026802;28;20374;-74
2022/03/06 17:08:15;;;;;;;10.07;4.45;;;7.00;99.90;;;;;;5032802;28;20037;-73
2022/03/06 17:10:41;;;;;;;5.65;2.85;;;7.00;99.90;;;;;;5038454;28;20034;-73
2022/03/06 17:13:07;;;;;;;5.53;2.28;;;6.90;99.90;;;;;;5032564;28;20093;-72
2022/03/06 17:15:33;;;;;;;7.25;2.78;;;6.90;99.90;;;;;;5025438;28;20025;-73
2022/03/06 17:17:59;;;;;;;5.53;2.13;;;6.90;99.90;;;;;;5043314;28;20025;-71
2022/03/06 17:20:27;;;;;;;3.97;2.40;;;6.80;99.90;;;;;;5043391;28;20041;-72
2022/03/06 17:22:52;;;;;;;5.38;2.42;;;6.70;99.90;;;;;;5043572;28;20839;-72
2022/03/06 17:25:18;;;;;;;10.95;3.55;;;6.70;99.90;;;;;;5043882;28;20040;-73
2022/03/06 17:27:44;;;;;;;5.47;2.75;;;6.60;99.90;;;;;;5024476;28;20040;-73
2022/03/06 17:30:11;;;;;;;6.85;2.78;;;6.60;99.90;;;;;;5033806;28;20053;-71
2022/03/06 17:32:36;;;;;;;5.50;3.15;;;6.50;99.90;;;;;;5035142;28;20040;-71
2022/03/06 17:35:03;;;;;;;16.23;2.97;;;6.40;99.90;;;;;;5034671;28;20038;-71
2022/03/06 17:37:28;;;;;;;7.38;3.05;;;6.40;99.90;;;;;;5030420;28;20033;-71
2022/03/06 17:39:54;;;;;;;4.95;2.92;;;6.40;99.90;;;;;;5025812;28;20026;-71
2022/03/06 17:42:21;;;;;;;7.97;3.13;;;6.40;99.90;;;;;;5009479;28;20397;-74
2022/03/06 17:44:46;;;;;;;5.18;2.08;;;6.30;99.90;;;;;;5026663;28;20041;-73
2022/03/06 17:47:12;;;;;;;5.60;2.75;;;6.30;99.90;;;;;;5037701;28;20034;-71
2022/03/06 17:49:39;;;;;;;8.07;3.70;;;6.20;99.90;;;;;;5043559;28;20029;-70
2022/03/06 17:52:05;;;;;;;6.43;2.83;;;6.20;99.90;;;;;;5028022;28;20473;-70
2022/03/06 17:54:31;;;;;;;4.35;2.90;;;6.10;99.90;;;;;;5046705;28;20032;-72
2022/03/06 17:56:57;;;;;;;11.20;2.65;;;6.10;99.90;;;;;;5045661;28;20017;-74
2022/03/06 17:59:23;;;;;;;9.43;3.05;;;6.00;99.90;;;;;;5041582;28;20038;-72
2022/03/06 18:01:50;;;;;;;8.77;3.17;;;6.00;99.90;;;;;;5043930;28;20022;-72
2022/03/06 18:04:16;;;;;;;9.05;3.20;;;5.90;99.90;;;;;;5045290;28;20030;-72
2022/03/06 18:06:42;;;;;;;7.65;3.03;;;5.90;99.90;;;;;;5045528;28;20481;-71
2022/03/06 18:09:12;;;;;;;7.75;3.00;;;5.70;99.90;;;;;;5046021;28;20026;-71
2022/03/06 18:11:37;;;;;;;4.82;2.67;;;5.70;99.90;;;;;;5046466;28;20134;-72
2022/03/06 18:14:03;;;;;;;9.15;3.88;;;5.60;99.90;;;;;;5045632;28;20030;-71
2022/03/06 18:16:29;;;;;;;7.57;3.38;;;5.50;99.90;;;;;;5046329;28;20104;-74
2022/03/06 18:18:56;;;;;;;9.48;3.33;;;5.40;99.90;;;;;;5046410;28;20025;-74
2022/03/06 18:21:22;;;;;;;14.98;3.45;;;5.30;99.90;;;;;;5046570;28;20037;-72
2022/03/06 18:23:47;;;;;;;7.63;3.33;;;5.20;99.90;;;;;;5045298;28;20045;-71
2022/03/06 18:26:17;;;;;;;7.93;3.80;;;5.10;99.90;;;;;;5043251;28;20033;-70
2022/03/06 18:28:44;;;;;;;13.48;4.05;;;5.00;99.90;;;;;;5046081;28;20052;-72
2022/03/06 18:31:13;;;;;;;6.30;3.08;;;5.00;99.90;;;;;;5045774;28;20152;-72
2022/03/06 18:33:38;;;;;;;9.15;3.28;;;4.90;99.90;;;;;;5045980;28;20029;-71
2022/03/06 18:36:04;;;;;;;10.73;4.20;;;4.80;99.90;;;;;;5044941;28;20039;-72
2022/03/06 18:38:33;;;;;;;8.05;4.15;;;4.70;99.90;;;;;;5045584;28;20040;-71
2022/03/06 18:40:59;;;;;;;11.85;6.00;;;4.70;99.90;;;;;;5044461;28;20029;-72
2022/03/06 18:43:25;;;;;;;18.40;5.45;;;4.60;99.90;;;;;;5042899;28;20044;-71
2022/03/06 18:45:53;;;;;;;18.10;4.63;;;4.50;99.90;;;;;;5034678;28;20029;-73
2022/03/06 18:48:21;;;;;;;10.25;4.28;;;4.50;99.90;;;;;;5037558;28;20591;-74
2022/03/06 18:50:46;;;;;;;9.52;3.83;;;4.40;99.90;;;;;;5030686;28;20100;-72
2022/03/06 18:53:12;;;;;;;8.60;3.85;;;4.30;99.90;;;;;;5036036;28;20064;-70
2022/03/06 18:55:37;;;;;;;8.30;3.88;;;4.20;99.90;;;;;;5045720;28;20030;-71
2022/03/06 18:58:05;;;;;;;9.98;4.68;;;4.10;99.90;;;;;;5045466;28;20033;-71
2022/03/06 19:00:31;;;;;;;8.38;3.95;;;3.90;99.90;;;;;;5044671;28;20029;-73
2022/03/06 19:02:57;;;;;;;10.00;4.38;;;3.80;99.90;;;;;;5036597;28;20050;-73
2022/03/06 19:05:23;;;;;;;10.88;3.75;;;3.70;99.90;;;;;;5025922;28;20045;-73
2022/03/06 19:07:50;;;;;;;6.60;3.55;;;3.60;99.90;;;;;;5025307;28;20053;-74
2022/03/06 19:10:16;;;;;;;7.95;3.70;;;3.60;99.90;;;;;;5024395;28;20033;-71
2022/03/06 19:12:44;;;;;;;9.27;3.55;;;3.60;99.90;;;;;;5030644;28;20042;-72
2022/03/06 19:15:10;;;;;;;9.13;3.67;;;3.50;99.90;;;;;;5030710;28;20029;-72
2022/03/06 19:17:37;;;;;;;6.68;3.85;;;3.50;99.90;;;;;;5025274;28;20034;-72
2022/03/06 19:20:03;;;;;;;9.07;4.63;;;3.50;99.90;;;;;;5036578;28;20083;-70
2022/03/06 19:22:29;;;;;;;9.40;3.95;;;3.40;99.90;;;;;;5032314;28;20117;-73
2022/03/06 19:24:54;;;;;;;7.82;3.95;;;3.40;99.90;;;;;;5037593;28;20033;-72
2022/03/06 19:27:21;;;;;;;8.68;3.80;;;3.40;99.90;;;;;;5037967;28;20039;-72
2022/03/06 19:29:46;;;;;;;12.57;4.20;;;3.40;99.90;;;;;;5045429;28;20496;-70
2022/03/06 19:32:12;;;;;;;12.80;4.20;;;3.40;99.90;;;;;;5044634;28;20017;-72
2022/03/06 19:34:39;;;;;;;12.40;3.97;;;3.40;99.90;;;;;;5045161;28;20029;-71
2022/03/06 19:37:05;;;;;;;12.18;4.05;;;3.50;99.90;;;;;;5043588;28;20022;-71
2022/03/06 19:39:31;;;;;;;9.55;4.63;;;3.50;99.90;;;;;;5038797;28;20044;-71
2022/03/06 19:42:01;;;;;;;15.00;4.72;;;3.50;99.90;;;;;;5030814;28;20033;-72
2022/03/06 19:44:28;;;;;;;8.82;3.75;;;3.50;99.90;;;;;;5028677;28;21370;-72
2022/03/06 19:46:55;;;;;;;12.30;4.63;;;3.40;99.90;;;;;;5022165;28;20036;-72
2022/03/06 19:49:23;;;;;;;15.85;5.38;;;3.40;99.90;;;;;;5032998;28;20042;-74
2022/03/06 19:51:53;;;;;;;9.82;5.53;;;3.40;99.90;;;;;;5025344;28;20104;-72
2022/03/06 19:54:22;;;;;;;11.15;4.95;;;3.30;99.90;;;;;;5029389;28;20124;-72
2022/03/06 19:56:57;;;;;;;14.32;5.15;;;3.30;99.90;;;;;;5044608;28;20065;-71
2022/03/06 19:59:26;;;;;;;11.95;5.75;;;3.30;99.90;;;;;;5045313;28;20029;-74
2022/03/06 20:01:56;;;;;;;11.55;5.50;;;3.20;99.90;;;;;;5036158;28;20029;-73
2022/03/06 20:04:31;;;;;;;13.40;5.50;;;3.20;99.90;;;;;;5044463;28;20056;-70
2022/03/06 20:06:59;;;;;;;14.95;6.10;;;3.20;99.90;;;;;;5044843;28;20033;-72
2022/03/06 20:09:24;;;;;;;9.93;5.13;;;3.10;99.90;;;;;;5044530;28;20048;-70
2022/03/06 20:11:52;;;;;;;19.63;5.82;;;3.00;99.90;;;;;;5044614;28;20029;-71
2022/03/06 20:14:20;;;;;;;21.05;6.22;;;3.00;99.90;;;;;;5033130;28;20030;-70
2022/03/06 20:16:45;;;;;;;18.65;5.75;;;2.90;99.90;;;;;;5040055;28;20089;-70
2022/03/06 20:19:12;;;;;;;16.42;6.72;;;2.90;99.90;;;;;;5032518;28;20032;-70
2022/03/06 20:21:38;;;;;;;18.05;6.97;;;2.90;99.90;;;;;;5031628;28;20029;-72
2022/03/06 20:24:04;;;;;;;19.27;6.15;;;2.90;99.90;;;;;;5033296;28;20443;-73
2022/03/06 20:26:30;;;;;;;18.30;6.20;;;2.90;99.90;;;;;;5040040;28;20037;-72
2022/03/06 20:28:56;;;;;;;17.42;6.63;;;2.80;99.90;;;;;;5042018;28;20518;-71
2022/03/06 20:31:24;;;;;;;17.52;6.10;;;2.80;99.90;;;;;;5034272;28;20056;-71
2022/03/06 20:33:55;;;;;;;14.73;6.80;;;2.80;99.90;;;;;;5035097;28;20041;-73
2022/03/06 20:36:22;;;;;;;16.65;7.13;;;2.70;99.90;;;;;;5037768;28;20119;-71
2022/03/06 20:38:48;;;;;;;21.33;7.25;;;2.70;99.90;;;;;;5032316;28;20042;-72
2022/03/06 20:41:13;;;;;;;17.17;7.03;;;2.60;99.90;;;;;;5031413;28;20032;-71
2022/03/06 20:43:39;;;;;;;13.32;6.10;;;2.50;99.90;;;;;;5038311;28;20042;-71
2022/03/06 20:46:04;;;;;;;14.38;6.40;;;2.40;99.90;;;;;;5038934;28;20033;-71
2022/03/06 20:48:30;;;;;;;14.50;7.05;;;2.40;99.90;;;;;;5043748;28;20025;-74
2022/03/06 20:50:57;;;;;;;24.50;6.57;;;2.30;99.90;;;;;;5043845;28;20033;-74
2022/03/06 20:53:24;;;;;;;21.10;7.60;;;2.30;99.90;;;;;;5043781;28;20481;-72
2022/03/06 20:55:50;;;;;;;13.25;5.45;;;2.30;99.90;;;;;;5025533;28;20095;-72
2022/03/06 20:58:19;;;;;;;26.58;6.50;;;2.30;99.90;;;;;;5040797;28;20056;-72
2022/03/06 21:00:49;;;;;;;18.33;6.95;;;2.20;99.90;;;;;;5042134;28;20022;-71
2022/03/06 21:03:16;;;;;;;14.05;6.00;;;2.20;99.90;;;;;;5032858;28;20131;-72
2022/03/06 21:05:42;;;;;;;15.13;7.30;;;2.10;99.90;;;;;;5039369;28;20041;-71
2022/03/06 21:08:10;;;;;;;16.33;6.72;;;2.10;99.90;;;;;;5039116;28;20025;-71
2022/03/06 21:10:35;;;;;;;17.17;6.03;;;2.10;99.90;;;;;;5033819;28;20022;-71
2022/03/06 21:13:01;;;;;;;23.55;7.88;;;2.10;99.90;;;;;;5033110;28;20036;-74
2022/03/06 21:15:28;;;;;;;21.35;6.75;;;2.10;99.90;;;;;;5038668;28;20018;-72
2022/03/06 21:17:53;;;;;;;24.45;8.55;;;2.10;99.90;;;;;;5041978;28;20046;-72
2022/03/06 21:20:19;;;;;;;17.85;6.90;;;2.10;99.90;;;;;;5039128;28;20037;-72
2022/03/06 21:22:45;;;;;;;23.00;8.75;;;2.10;99.90;;;;;;5038250;28;20100;-72
2022/03/06 21:25:11;;;;;;;21.17;7.47;;;2.10;99.90;;;;;;5037863;28;20038;-72
2022/03/06 21:27:37;;;;;;;26.02;8.20;;;2.10;99.90;;;;;;5038951;28;20049;-73
2022/03/06 21:30:05;;;;;;;21.10;8.55;;;2.10;99.90;;;;;;5036240;28;20089;-71
2022/03/06 21:32:31;;;;;;;21.13;9.00;;;2.10;99.90;;;;;;5036867;28;20110;-71
2022/03/06 21:34:57;;;;;;;26.40;8.95;;;2.10;99.90;;;;;;5037366;28;20485;-72
2022/03/06 21:37:24;;;;;;;14.77;7.07;;;2.20;99.90;;;;;;5035679;28;20109;-73
2022/03/06 21:39:50;;;;;;;16.88;7.05;;;2.10;99.90;;;;;;5037401;28;20044;-72